createdAt,value
2024-02-27T00:02:14.850Z,5.60
2024-02-27T00:04:43.212Z,5.78
2024-02-27T00:07:13.680Z,6.47
2024-02-27T00:09:47.972Z,7.32
2024-02-27T00:12:16.946Z,6.25
2024-02-27T00:14:43.888Z,6.00
2024-02-27T00:17:10.865Z,10.95
2024-02-27T00:19:37.993Z,6.75
2024-02-27T00:22:05.050Z,7.10
2024-02-27T00:24:31.996Z,10.35
2024-02-27T00:26:58.958Z,7.40
2024-02-27T00:29:26.796Z,9.82
2024-02-27T00:31:53.857Z,11.85
2024-02-27T00:34:20.800Z,10.60
2024-02-27T00:36:47.674Z,9.15
2024-02-27T00:39:14.529Z,9.65
2024-02-27T00:41:42.801Z,8.02
2024-02-27T00:44:11.228Z,8.55
2024-02-27T00:46:39.171Z,8.30
2024-02-27T00:49:06.483Z,9.10
2024-02-27T00:51:33.578Z,7.60
2024-02-27T00:54:01.141Z,7.70
2024-02-27T00:56:28.364Z,8.23
2024-02-27T00:58:55.163Z,7.88
2024-02-27T01:01:22.100Z,8.73
2024-02-27T01:03:49.280Z,8.88
2024-02-27T01:06:16.420Z,9.40
2024-02-27T01:08:43.415Z,10.02
2024-02-27T01:11:10.560Z,9.85
2024-02-27T01:13:37.604Z,8.60
2024-02-27T01:16:04.922Z,9.88
2024-02-27T01:18:32.043Z,9.45
2024-02-27T01:20:59.769Z,8.52
2024-02-27T01:23:26.886Z,8.80
2024-02-27T01:25:53.859Z,8.80
2024-02-27T01:28:20.830Z,9.52
2024-02-27T01:30:47.831Z,9.30
2024-02-27T01:33:14.892Z,9.00
2024-02-27T01:35:41.921Z,9.30
2024-02-27T01:38:08.926Z,9.55
2024-02-27T01:40:35.783Z,8.90
2024-02-27T01:43:02.654Z,8.23
2024-02-27T01:45:30.220Z,8.30
2024-02-27T01:47:58.064Z,8.13
2024-02-27T01:50:25.782Z,8.20
2024-02-27T01:52:53.711Z,9.18
2024-02-27T01:55:20.950Z,8.35
2024-02-27T01:57:50.038Z,8.77
2024-02-27T02:00:18.053Z,9.23
2024-02-27T02:02:46.105Z,10.18
2024-02-27T02:05:13.978Z,11.32
2024-02-27T02:07:42.060Z,10.35
2024-02-27T02:10:15.400Z,8.80
2024-02-27T02:12:42.657Z,9.38
2024-02-27T02:15:10.351Z,8.90
2024-02-27T02:17:37.395Z,10.20
2024-02-27T02:20:06.866Z,11.23
2024-02-27T02:22:34.835Z,9.73
2024-02-27T02:25:02.584Z,9.73
2024-02-27T02:27:31.247Z,9.55
2024-02-27T02:29:58.166Z,9.95
2024-02-27T02:32:25.465Z,10.00
2024-02-27T02:34:52.452Z,10.73
2024-02-27T02:37:19.523Z,9.77
2024-02-27T02:39:46.394Z,10.70
2024-02-27T02:42:13.556Z,9.82
2024-02-27T02:44:40.471Z,10.52
2024-02-27T02:47:07.401Z,9.93
2024-02-27T02:49:35.172Z,10.98
2024-02-27T02:52:03.099Z,9.95
2024-02-27T02:54:30.307Z,9.23
2024-02-27T02:56:57.322Z,7.20
2024-02-27T02:59:26.725Z,7.88
2024-02-27T03:01:53.663Z,8.95
2024-02-27T03:04:20.595Z,10.65
2024-02-27T03:06:47.717Z,10.07
2024-02-27T03:09:14.777Z,15.45
2024-02-27T03:11:41.802Z,14.50
2024-02-27T03:14:08.704Z,14.68
2024-02-27T03:16:35.635Z,14.70
2024-02-27T03:19:04.247Z,15.25
2024-02-27T03:21:33.745Z,13.88
2024-02-27T03:24:00.991Z,13.90
2024-02-27T03:26:27.826Z,14.30
2024-02-27T03:28:54.670Z,14.13
2024-02-27T03:31:21.761Z,14.68
2024-02-27T03:33:48.656Z,15.80
2024-02-27T03:36:15.955Z,13.77
2024-02-27T03:38:43.507Z,14.60
2024-02-27T03:41:16.844Z,12.93
2024-02-27T03:43:43.909Z,11.43
2024-02-27T03:46:11.727Z,11.95
2024-02-27T03:48:38.874Z,10.60
2024-02-27T03:51:07.623Z,9.98
2024-02-27T03:53:34.637Z,10.85
2024-02-27T03:56:01.695Z,10.73
2024-02-27T03:58:28.672Z,11.25
2024-02-27T04:00:55.889Z,10.60
2024-02-27T04:03:22.863Z,12.30
2024-02-27T04:05:50.032Z,12.88
2024-02-27T04:08:16.950Z,14.80
2024-02-27T04:10:43.987Z,12.82
2024-02-27T04:13:10.905Z,13.75
2024-02-27T04:15:37.937Z,14.20
2024-02-27T04:18:05.706Z,13.73
2024-02-27T04:20:32.808Z,14.13
2024-02-27T04:22:59.901Z,13.57
2024-02-27T04:25:27.160Z,12.82
2024-02-27T04:27:54.015Z,12.57
2024-02-27T04:30:21.194Z,12.73
2024-02-27T04:32:48.139Z,13.63
2024-02-27T04:35:16.060Z,15.88
2024-02-27T04:37:42.932Z,13.88
2024-02-27T04:40:10.590Z,14.77
2024-02-27T04:42:37.534Z,15.32
2024-02-27T04:45:04.944Z,12.73
2024-02-27T04:47:32.445Z,13.50
2024-02-27T04:49:59.865Z,11.43
2024-02-27T04:52:26.840Z,13.40
2024-02-27T04:54:53.720Z,14.23
2024-02-27T04:57:21.819Z,14.05
2024-02-27T04:59:48.770Z,15.32
2024-02-27T05:02:15.754Z,15.90
2024-02-27T05:04:42.557Z,18.73
2024-02-27T05:07:09.762Z,16.40
2024-02-27T05:09:36.698Z,15.13
2024-02-27T05:12:03.872Z,14.07
2024-02-27T05:14:30.769Z,14.40
2024-02-27T05:16:57.732Z,15.13
2024-02-27T05:19:24.896Z,16.20
2024-02-27T05:21:51.915Z,15.50
2024-02-27T05:24:19.137Z,13.40
2024-02-27T05:26:46.056Z,14.88
2024-02-27T05:29:12.933Z,14.43
2024-02-27T05:31:39.798Z,15.10
2024-02-27T05:34:06.758Z,15.25
2024-02-27T05:36:34.668Z,15.07
2024-02-27T05:39:01.649Z,16.67
2024-02-27T05:41:28.643Z,16.20
2024-02-27T05:43:55.762Z,15.98
2024-02-27T05:46:22.770Z,15.10
2024-02-27T05:48:49.789Z,14.90
2024-02-27T05:51:17.046Z,14.00
2024-02-27T05:53:44.399Z,14.40
2024-02-27T05:56:11.387Z,15.18
2024-02-27T05:58:39.160Z,16.15
2024-02-27T06:01:06.155Z,16.23
2024-02-27T06:03:33.307Z,15.88
2024-02-27T06:06:01.826Z,14.15
2024-02-27T06:08:28.913Z,15.20
2024-02-27T06:10:55.789Z,13.13
2024-02-27T06:13:22.714Z,15.95
2024-02-27T06:15:49.715Z,16.65
2024-02-27T06:18:17.001Z,19.98
2024-02-27T06:21:03.126Z,18.98
2024-02-27T06:23:30.254Z,15.27
2024-02-27T06:25:57.298Z,15.10
2024-02-27T06:28:25.070Z,16.27
2024-02-27T06:30:52.141Z,16.27
2024-02-27T06:33:19.218Z,17.10
2024-02-27T06:35:46.166Z,17.65
2024-02-27T06:38:13.075Z,17.23
2024-02-27T06:40:44.360Z,16.08
2024-02-27T06:43:11.322Z,17.75
2024-02-27T06:45:38.575Z,16.48
2024-02-27T06:48:06.025Z,17.30
2024-02-27T06:50:33.082Z,17.45
2024-02-27T06:53:00.915Z,17.25
2024-02-27T06:55:27.872Z,16.55
2024-02-27T06:57:54.729Z,16.35
2024-02-27T07:00:22.105Z,16.50
2024-02-27T07:02:50.893Z,15.98
2024-02-27T07:05:18.701Z,16.90
2024-02-27T07:07:45.852Z,17.10
2024-02-27T07:10:15.078Z,15.23
2024-02-27T07:12:43.356Z,16.60
2024-02-27T07:15:12.354Z,16.23
2024-02-27T07:17:39.467Z,18.25
2024-02-27T07:20:10.198Z,15.50
2024-02-27T07:22:37.538Z,18.17
2024-02-27T07:25:04.683Z,18.02
2024-02-27T07:27:32.075Z,18.35
2024-02-27T07:29:59.395Z,19.00
2024-02-27T07:32:26.388Z,17.58
2024-02-27T07:34:53.412Z,17.73
2024-02-27T07:37:20.287Z,18.42
2024-02-27T07:39:47.272Z,18.95
2024-02-27T07:42:14.384Z,17.38
2024-02-27T07:44:41.482Z,16.40
2024-02-27T07:47:09.230Z,15.75
2024-02-27T07:49:36.084Z,18.80
2024-02-27T07:52:03.018Z,17.88
2024-02-27T07:54:30.072Z,18.60
2024-02-27T07:56:57.034Z,20.98
2024-02-27T07:59:25.691Z,22.58
2024-02-27T08:01:52.662Z,21.83
2024-02-27T08:04:19.963Z,21.05
2024-02-27T08:06:47.459Z,21.83
2024-02-27T08:09:17.176Z,20.33
2024-02-27T08:11:44.524Z,21.50
2024-02-27T08:14:11.737Z,21.65
2024-02-27T08:16:38.594Z,22.63
2024-02-27T08:19:05.892Z,21.90
2024-02-27T08:21:33.550Z,20.92
2024-02-27T08:24:02.187Z,19.63
2024-02-27T08:26:29.768Z,19.83
2024-02-27T08:28:57.607Z,19.60
2024-02-27T08:31:24.946Z,17.60
2024-02-27T08:33:52.389Z,18.50
2024-02-27T08:36:19.535Z,17.65
2024-02-27T08:38:46.554Z,17.77
2024-02-27T08:41:14.950Z,18.50
2024-02-27T08:43:44.295Z,17.42
2024-02-27T08:46:17.570Z,16.88
2024-02-27T08:48:45.542Z,17.83
2024-02-27T08:51:12.593Z,17.05
2024-02-27T08:53:40.045Z,16.98
2024-02-27T08:56:08.073Z,14.90
2024-02-27T08:58:36.349Z,15.23
2024-02-27T09:01:03.509Z,15.38
2024-02-27T09:03:30.932Z,16.52
2024-02-27T09:05:57.985Z,15.90
2024-02-27T09:08:24.863Z,15.57
2024-02-27T09:10:51.861Z,16.38
2024-02-27T09:13:18.950Z,16.50
2024-02-27T09:15:46.081Z,16.73
2024-02-27T09:18:14.223Z,14.85
2024-02-27T09:20:42.937Z,14.75
2024-02-27T09:23:09.871Z,14.40
2024-02-27T09:25:38.094Z,14.38
2024-02-27T09:28:05.570Z,14.95
2024-02-27T09:30:32.467Z,13.25
2024-02-27T09:32:59.484Z,13.55
2024-02-27T09:35:26.389Z,14.32
2024-02-27T09:37:56.196Z,14.32
2024-02-27T09:40:24.948Z,13.82
2024-02-27T09:42:56.529Z,14.75
2024-02-27T09:45:27.142Z,13.30
2024-02-27T09:47:55.241Z,12.98
2024-02-27T09:50:23.643Z,12.18
2024-02-27T09:52:52.450Z,13.15
2024-02-27T09:55:21.709Z,12.10
2024-02-27T09:57:49.978Z,12.38
2024-02-27T10:00:20.700Z,13.90
2024-02-27T10:02:50.985Z,12.13
2024-02-27T10:05:20.588Z,12.95
2024-02-27T10:07:50.081Z,12.57
2024-02-27T10:10:17.749Z,12.75
2024-02-27T10:12:44.970Z,11.65
2024-02-27T10:15:12.124Z,11.85
2024-02-27T10:17:40.399Z,11.98
2024-02-27T10:20:12.444Z,12.05
2024-02-27T10:22:43.335Z,11.63
2024-02-27T10:25:21.174Z,11.52
2024-02-27T10:27:48.310Z,12.38
2024-02-27T10:30:16.532Z,11.88
2024-02-27T10:32:45.082Z,10.95
2024-02-27T10:35:15.767Z,11.30
2024-02-27T10:37:43.390Z,11.43
2024-02-27T10:40:11.830Z,10.85
2024-02-27T10:42:40.872Z,11.40
2024-02-27T10:45:08.157Z,10.90
2024-02-27T10:47:36.946Z,11.07
2024-02-27T10:50:08.213Z,12.32
2024-02-27T10:52:39.084Z,12.05
2024-02-27T10:55:08.283Z,10.30
2024-02-27T10:57:37.758Z,11.23
2024-02-27T11:00:06.126Z,11.63
2024-02-27T11:02:37.068Z,10.43
2024-02-27T11:05:05.077Z,11.32
2024-02-27T11:07:32.996Z,11.50
2024-02-27T11:10:01.554Z,11.23
2024-02-27T11:12:33.446Z,10.15
2024-02-27T11:15:05.992Z,10.40
2024-02-27T11:17:40.447Z,9.30
2024-02-27T11:20:08.751Z,11.13
2024-02-27T11:22:37.613Z,9.48
2024-02-27T11:25:05.767Z,9.73
2024-02-27T11:27:34.057Z,9.85
2024-02-27T11:30:01.914Z,10.00
2024-02-27T11:32:29.972Z,10.25
2024-02-27T11:34:57.257Z,10.43
2024-02-27T11:37:25.505Z,10.27
2024-02-27T11:39:52.990Z,9.02
2024-02-27T11:42:39.810Z,9.10
2024-02-27T11:45:11.202Z,9.27
2024-02-27T11:47:45.518Z,10.27
2024-02-27T11:50:14.818Z,13.57
2024-02-27T11:52:46.742Z,12.40
2024-02-27T11:55:14.014Z,10.48
2024-02-27T11:57:41.163Z,10.80
2024-02-27T12:00:18.107Z,9.55
2024-02-27T12:02:48.407Z,10.05
2024-02-27T12:05:18.153Z,10.68
2024-02-27T12:07:45.423Z,9.95
2024-02-27T12:10:16.632Z,10.35
2024-02-27T12:12:46.422Z,10.93
2024-02-27T12:15:13.583Z,10.50
2024-02-27T12:17:40.660Z,11.25
2024-02-27T12:20:10.949Z,11.20
2024-02-27T12:22:38.951Z,11.95
2024-02-27T12:25:06.707Z,10.48
2024-02-27T12:27:34.391Z,10.07
2024-02-27T12:30:08.611Z,11.07
2024-02-27T12:32:36.031Z,10.38
2024-02-27T12:35:07.985Z,9.68
2024-02-27T12:37:42.166Z,10.32
2024-02-27T12:40:14.070Z,9.52
2024-02-27T12:42:46.619Z,9.45
2024-02-27T12:45:15.345Z,9.98
2024-02-27T12:47:44.570Z,10.80
2024-02-27T12:50:12.827Z,10.35
2024-02-27T12:52:41.948Z,10.55
2024-02-27T12:55:10.975Z,9.73
2024-02-27T12:57:39.033Z,10.65
2024-02-27T13:00:09.274Z,9.38
2024-02-27T13:02:36.282Z,9.63
2024-02-27T13:05:09.048Z,9.95
2024-02-27T13:07:39.197Z,9.38
2024-02-27T13:10:06.797Z,9.38
2024-02-27T13:12:33.784Z,9.98
2024-02-27T13:15:00.829Z,9.27
2024-02-27T13:17:27.972Z,9.05
2024-02-27T13:19:55.062Z,10.85
2024-02-27T13:22:22.008Z,9.38
2024-02-27T13:24:49.009Z,10.85
2024-02-27T13:27:16.041Z,9.40
2024-02-27T13:29:43.890Z,9.88
2024-02-27T13:32:11.155Z,9.48
2024-02-27T13:34:38.149Z,9.27
2024-02-27T13:37:06.945Z,9.38
2024-02-27T13:39:33.987Z,9.30
2024-02-27T13:42:04.121Z,10.00
2024-02-27T13:44:31.252Z,10.38
2024-02-27T13:46:58.569Z,10.00
2024-02-27T13:49:25.575Z,9.57
2024-02-27T13:51:52.622Z,9.30
2024-02-27T13:54:19.715Z,9.90
2024-02-27T13:56:47.172Z,9.50
2024-02-27T13:59:14.127Z,9.13
2024-02-27T14:01:41.133Z,10.07
2024-02-27T14:04:08.392Z,9.68
2024-02-27T14:06:36.559Z,9.32
2024-02-27T14:09:03.717Z,9.43
2024-02-27T14:11:30.989Z,9.27
2024-02-27T14:14:03.986Z,9.57
2024-02-27T14:16:39.814Z,8.88
2024-02-27T14:19:08.628Z,9.23
2024-02-27T14:21:36.023Z,9.10
2024-02-27T14:24:04.051Z,9.10
2024-02-27T14:26:31.177Z,8.70
2024-02-27T14:28:58.501Z,9.23
2024-02-27T14:31:25.566Z,10.32
2024-02-27T14:33:52.485Z,9.85
2024-02-27T14:36:19.425Z,10.60
2024-02-27T14:38:46.416Z,10.70
2024-02-27T14:41:13.345Z,9.48
2024-02-27T14:43:40.193Z,9.10
2024-02-27T14:46:07.048Z,8.65
2024-02-27T14:48:34.041Z,8.82
2024-02-27T14:51:01.856Z,9.15
2024-02-27T14:53:28.806Z,9.43
2024-02-27T14:55:55.849Z,9.95
2024-02-27T14:58:23.595Z,9.13
2024-02-27T15:00:50.742Z,8.27
2024-02-27T15:03:17.817Z,9.32
2024-02-27T15:05:44.826Z,8.48
2024-02-27T15:08:12.207Z,7.88
2024-02-27T15:10:39.101Z,8.75
2024-02-27T15:13:06.076Z,9.50
2024-02-27T15:15:33.101Z,9.40
2024-02-27T15:18:00.300Z,8.43
2024-02-27T15:20:27.196Z,8.18
2024-02-27T15:22:54.634Z,8.82
2024-02-27T15:25:21.562Z,8.43
2024-02-27T15:27:48.567Z,8.05
2024-02-27T15:30:18.759Z,8.77
2024-02-27T15:32:47.783Z,8.32
2024-02-27T15:35:14.792Z,8.07
2024-02-27T15:37:41.684Z,8.48
2024-02-27T15:40:09.244Z,8.52
2024-02-27T15:42:36.489Z,8.25
2024-02-27T15:45:05.401Z,8.48
2024-02-27T15:47:32.516Z,8.32
2024-02-27T15:49:59.474Z,8.05
2024-02-27T15:52:26.559Z,9.20
2024-02-27T15:54:53.737Z,8.07
2024-02-27T15:57:20.712Z,7.93
2024-02-27T15:59:47.721Z,8.77
2024-02-27T16:02:16.744Z,7.82
2024-02-27T16:04:57.036Z,8.00
2024-02-27T16:07:35.326Z,11.40
2024-02-27T16:10:04.199Z,12.95
2024-02-27T16:12:35.360Z,9.80
2024-02-27T16:15:04.885Z,8.13
2024-02-27T16:17:32.692Z,8.85
2024-02-27T16:20:00.153Z,8.35
2024-02-27T16:22:27.239Z,8.20
2024-02-27T16:24:54.472Z,9.30
2024-02-27T16:27:22.191Z,9.15
2024-02-27T16:29:49.228Z,8.13
2024-02-27T16:32:16.233Z,7.60
2024-02-27T16:34:43.273Z,8.75
2024-02-27T16:37:11.160Z,8.90
2024-02-27T16:39:38.134Z,7.63
2024-02-27T16:42:05.542Z,9.25
2024-02-27T16:44:32.516Z,17.48
2024-02-27T16:46:59.360Z,8.18
2024-02-27T16:49:26.252Z,7.85
2024-02-27T16:51:53.226Z,8.73
2024-02-27T16:54:20.109Z,8.27
2024-02-27T16:56:47.200Z,8.73
2024-02-27T16:59:14.152Z,9.00
2024-02-27T17:01:41.052Z,11.15
2024-02-27T17:04:08.033Z,9.90
2024-02-27T17:06:35.060Z,10.82
2024-02-27T17:09:02.657Z,11.15
2024-02-27T17:11:29.645Z,15.95
2024-02-27T17:13:56.543Z,13.77
2024-02-27T17:16:23.695Z,13.43
2024-02-27T17:18:50.739Z,9.05
2024-02-27T17:21:17.933Z,9.27
2024-02-27T17:23:45.443Z,9.75
2024-02-27T17:26:13.396Z,9.80
2024-02-27T17:28:40.708Z,8.32
2024-02-27T17:31:07.647Z,8.98
2024-02-27T17:33:35.561Z,10.88
2024-02-27T17:36:04.112Z,10.32
2024-02-27T17:38:31.023Z,12.32
2024-02-27T17:40:59.484Z,12.52
2024-02-27T17:43:26.947Z,20.95
2024-02-27T17:45:53.852Z,19.13
2024-02-27T17:48:22.232Z,18.55
2024-02-27T17:50:49.300Z,14.82
2024-02-27T17:53:16.203Z,9.35
2024-02-27T17:55:43.400Z,8.60
2024-02-27T17:58:10.390Z,9.63
2024-02-27T18:00:38.376Z,11.00
2024-02-27T18:03:05.820Z,11.07
2024-02-27T18:05:32.814Z,12.02
2024-02-27T18:07:59.893Z,11.13
2024-02-27T18:10:27.282Z,11.85
2024-02-27T18:12:54.344Z,10.73
2024-02-27T18:15:21.420Z,10.20
2024-02-27T18:17:48.841Z,9.43
2024-02-27T18:20:16.916Z,9.13
2024-02-27T18:22:44.087Z,9.80
2024-02-27T18:25:12.762Z,10.93
2024-02-27T18:27:41.205Z,10.20
2024-02-27T18:30:09.444Z,10.60
2024-02-27T18:32:38.306Z,9.80
2024-02-27T18:35:05.967Z,8.48
2024-02-27T18:37:32.995Z,8.18
2024-02-27T18:40:02.198Z,8.50
2024-02-27T18:42:29.655Z,8.63
2024-02-27T18:44:56.674Z,9.00
2024-02-27T18:47:23.594Z,10.13
2024-02-27T18:49:52.979Z,9.38
2024-02-27T18:52:21.160Z,8.95
2024-02-27T18:54:48.989Z,9.55
2024-02-27T18:57:16.383Z,9.73
2024-02-27T18:59:43.322Z,10.77
2024-02-27T19:02:10.609Z,12.18
2024-02-27T19:04:37.813Z,11.63
2024-02-27T19:07:05.388Z,13.05
2024-02-27T19:09:32.725Z,13.63
2024-02-27T19:12:00.140Z,13.82
2024-02-27T19:14:27.243Z,14.32
2024-02-27T19:16:55.385Z,15.65
2024-02-27T19:19:22.269Z,14.20
2024-02-27T19:21:49.530Z,15.82
2024-02-27T19:24:17.640Z,15.35
2024-02-27T19:26:44.844Z,14.60
2024-02-27T19:29:11.856Z,16.67
2024-02-27T19:31:39.133Z,16.10
2024-02-27T19:34:06.046Z,16.77
2024-02-27T19:36:34.038Z,16.85
2024-02-27T19:39:01.209Z,16.60
2024-02-27T19:41:28.068Z,17.05
2024-02-27T19:43:54.921Z,16.48
2024-02-27T19:46:21.950Z,18.27
2024-02-27T19:48:49.800Z,18.38
2024-02-27T19:51:17.384Z,17.15
2024-02-27T19:53:44.818Z,19.20
2024-02-27T19:56:11.800Z,21.05
2024-02-27T19:58:38.743Z,21.08
2024-02-27T20:01:05.932Z,19.77
2024-02-27T20:03:33.160Z,22.27
2024-02-27T20:06:00.501Z,21.92
2024-02-27T20:08:27.408Z,21.73
2024-02-27T20:10:54.351Z,21.73
2024-02-27T20:13:22.270Z,23.77
2024-02-27T20:15:50.194Z,23.92
2024-02-27T20:18:20.355Z,21.52
2024-02-27T20:20:47.256Z,22.23
2024-02-27T20:23:21.635Z,20.67
2024-02-27T20:25:49.670Z,21.10
2024-02-27T20:28:16.558Z,22.15
2024-02-27T20:30:43.690Z,23.02
2024-02-27T20:33:10.778Z,25.50
2024-02-27T20:35:38.652Z,24.08
2024-02-27T20:38:05.827Z,24.85
2024-02-27T20:40:33.010Z,26.38
2024-02-27T20:42:59.903Z,26.45
2024-02-27T20:45:27.990Z,27.35
2024-02-27T20:47:54.924Z,28.33
2024-02-27T20:50:21.967Z,27.75
2024-02-27T20:52:49.070Z,27.63
2024-02-27T20:55:17.361Z,26.52
2024-02-27T20:57:44.374Z,28.63
2024-02-27T21:00:11.696Z,28.13
2024-02-27T21:02:39.327Z,28.73
2024-02-27T21:05:06.389Z,29.05
2024-02-27T21:07:33.192Z,27.50
2024-02-27T21:10:00.394Z,28.42
2024-02-27T21:12:27.524Z,29.00
2024-02-27T21:14:55.551Z,28.75
2024-02-27T21:17:23.746Z,30.17
2024-02-27T21:19:50.702Z,30.73
2024-02-27T21:22:17.636Z,30.23
2024-02-27T21:24:44.508Z,29.95
2024-02-27T21:27:11.422Z,31.40
2024-02-27T21:29:38.283Z,29.83
2024-02-27T21:32:05.483Z,30.00
2024-02-27T21:34:32.367Z,30.65
2024-02-27T21:37:00.435Z,30.70
2024-02-27T21:39:27.377Z,31.05
2024-02-27T21:41:54.453Z,31.52
2024-02-27T21:44:21.408Z,30.45
2024-02-27T21:46:48.434Z,30.92
2024-02-27T21:49:15.318Z,30.83
2024-02-27T21:51:46.415Z,28.38
2024-02-27T21:54:19.764Z,30.42
2024-02-27T21:56:46.980Z,30.52
2024-02-27T21:59:15.388Z,31.23
2024-02-27T22:01:42.265Z,29.77
2024-02-27T22:04:09.192Z,31.20
2024-02-27T22:06:36.425Z,32.25
2024-02-27T22:09:03.984Z,30.58
2024-02-27T22:11:33.407Z,30.15
2024-02-27T22:14:00.363Z,30.25
2024-02-27T22:16:27.336Z,31.80
2024-02-27T22:18:55.098Z,30.48
2024-02-27T22:21:21.967Z,31.58
2024-02-27T22:23:48.881Z,30.02
2024-02-27T22:26:15.843Z,29.83
2024-02-27T22:28:42.768Z,30.73
2024-02-27T22:31:09.619Z,30.27
2024-02-27T22:33:36.689Z,31.55
2024-02-27T22:36:03.782Z,31.08
2024-02-27T22:38:30.757Z,28.45
2024-02-27T22:40:57.608Z,29.08
2024-02-27T22:43:24.593Z,28.20
2024-02-27T22:45:51.579Z,28.40
2024-02-27T22:48:18.507Z,26.83
2024-02-27T22:50:45.655Z,26.60
2024-02-27T22:53:12.887Z,27.17
2024-02-27T22:55:39.995Z,27.73
2024-02-27T22:58:07.925Z,27.02
2024-02-27T23:00:36.034Z,26.75
2024-02-27T23:03:03.456Z,26.95
2024-02-27T23:05:30.490Z,26.90
2024-02-27T23:07:58.116Z,27.20
2024-02-27T23:10:25.012Z,26.23
2024-02-27T23:12:52.123Z,23.52
2024-02-27T23:15:19.382Z,26.60
2024-02-27T23:17:47.885Z,27.15
2024-02-27T23:20:16.645Z,26.92
2024-02-27T23:22:44.497Z,25.88
2024-02-27T23:25:12.707Z,24.23
2024-02-27T23:27:40.518Z,23.85
2024-02-27T23:30:09.269Z,24.92
2024-02-27T23:32:37.894Z,25.00
2024-02-27T23:35:05.260Z,23.27
2024-02-27T23:37:32.204Z,23.83
2024-02-27T23:39:59.354Z,23.33
2024-02-27T23:42:28.277Z,23.27
2024-02-27T23:44:56.066Z,25.70
2024-02-27T23:47:23.211Z,23.92
2024-02-27T23:49:50.235Z,25.23
2024-02-27T23:52:17.401Z,25.63
2024-02-27T23:54:44.477Z,24.70
2024-02-27T23:57:11.687Z,23.50
2024-02-27T23:59:38.753Z,24.23
